This is the latest recevied weather packets stored in our database for station/object JH1LWU-13. If no packets are shown the sender has not sent any weather packets the latest 10 day(s).
| Time | Temp. | Humidity | Pressure | Rain* | Wind** | Luminosity | Snow |
|---|---|---|---|---|---|---|---|
| 1787930240 | 26.11° C | 57% | 1007 hPa | - | - | - | - |
| 1787928439 | 26.67° C | 58% | 1005 hPa | - | - | - | - |
| 1787926638 | 26.67° C | 60% | 1007 hPa | - | - | - | - |
| 1787924837 | 28.89° C | 53% | 1007 hPa | - | - | - | - |
| 1787923036 | 29.44° C | 53% | 1008 hPa | - | - | - | - |
| 1787921235 | 27.22° C | 59% | 1007 hPa | - | - | - | - |
| 1787919434 | 27.22° C | 59% | 1006 hPa | - | - | - | - |
| 1787917633 | 27.22° C | 58% | 1007 hPa | - | - | - | - |
| 1787915832 | 27.78° C | 57% | 1006 hPa | - | - | - | - |
| 1787914031 | 28.33° C | 58% | 1006 hPa | - | - | - | - |
| 1787912230 | 28.33° C | 59% | 1006 hPa | - | - | - | - |
| 1787910429 | 28.89° C | 60% | 1005 hPa | - | - | - | - |
| 1787908628 | 28.89° C | 61% | 1005 hPa | - | - | - | - |
| 1787906827 | 29.44° C | 61% | 1006 hPa | - | - | - | - |
| 1787905026 | 31.11° C | 55% | 1005 hPa | - | - | - | - |
| 1787903225 | 31.11° C | 51% | 1003 hPa | - | - | - | - |
| 1787901424 | 31.11° C | 50% | 1003 hPa | - | - | - | - |
| 1787899623 | 31.11° C | 50% | 1003 hPa | - | - | - | - |
| 1787897822 | 32.22° C | 48% | 1004 hPa | - | - | - | - |
| 1787896021 | 32.22° C | 48% | 1003 hPa | - | - | - | - |
| 1787894220 | 32.78° C | 47% | 1003 hPa | - | - | - | - |
| 1787892419 | 33.89° C | 46% | 1003 hPa | - | - | - | - |
| 1787890618 | 35° C | 38% | 1003 hPa | - | - | - | - |
| 1787888817 | 35° C | 37% | 1003 hPa | - | - | - | - |
| 1787887016 | 33.89° C | 40% | 1005 hPa | - | - | - | - |
* Rain since midnight (hover to see other rain measurements)
** Current wind speed in m/s (hover to see current wind gust speed)